sensor_id;sensor_type;location;lat;lon;timestamp;P1;durP1;ratioP1;P2;durP2;ratioP2
27802;SDS011;15182;48.174;11.562;2023-02-01T00:02:20;5.43;;;5.23;;
27802;SDS011;15182;48.174;11.562;2023-02-01T00:04:52;5.23;;;4.97;;
27802;SDS011;15182;48.174;11.562;2023-02-01T00:07:24;6.07;;;5.53;;
27802;SDS011;15182;48.174;11.562;2023-02-01T00:09:55;5.37;;;5.13;;
27802;SDS011;15182;48.174;11.562;2023-02-01T00:12:26;5.60;;;5.40;;
27802;SDS011;15182;48.174;11.562;2023-02-01T00:14:57;5.67;;;5.37;;
27802;SDS011;15182;48.174;11.562;2023-02-01T00:17:29;4.83;;;4.73;;
27802;SDS011;15182;48.174;11.562;2023-02-01T00:20:02;5.60;;;5.30;;
27802;SDS011;15182;48.174;11.562;2023-02-01T00:22:34;5.17;;;5.00;;
27802;SDS011;15182;48.174;11.562;2023-02-01T00:25:06;5.27;;;5.13;;
27802;SDS011;15182;48.174;11.562;2023-02-01T00:27:38;5.30;;;5.10;;
27802;SDS011;15182;48.174;11.562;2023-02-01T00:30:17;4.90;;;4.80;;
27802;SDS011;15182;48.174;11.562;2023-02-01T00:32:48;6.00;;;5.60;;
27802;SDS011;15182;48.174;11.562;2023-02-01T00:35:21;5.23;;;5.03;;
27802;SDS011;15182;48.174;11.562;2023-02-01T00:37:52;5.37;;;5.07;;
27802;SDS011;15182;48.174;11.562;2023-02-01T00:40:24;5.53;;;5.33;;
27802;SDS011;15182;48.174;11.562;2023-02-01T00:42:55;6.10;;;5.70;;
27802;SDS011;15182;48.174;11.562;2023-02-01T00:45:27;5.50;;;5.30;;
27802;SDS011;15182;48.174;11.562;2023-02-01T00:47:58;5.67;;;5.47;;
27802;SDS011;15182;48.174;11.562;2023-02-01T00:50:42;5.43;;;5.23;;
27802;SDS011;15182;48.174;11.562;2023-02-01T00:53:14;5.40;;;5.20;;
27802;SDS011;15182;48.174;11.562;2023-02-01T00:55:45;6.50;;;6.10;;
27802;SDS011;15182;48.174;11.562;2023-02-01T00:58:18;5.47;;;5.17;;
27802;SDS011;15182;48.174;11.562;2023-02-01T01:00:49;6.00;;;5.60;;
27802;SDS011;15182;48.174;11.562;2023-02-01T01:03:27;5.47;;;5.07;;
27802;SDS011;15182;48.174;11.562;2023-02-01T01:06:02;6.00;;;5.70;;
27802;SDS011;15182;48.174;11.562;2023-02-01T01:08:36;5.53;;;5.33;;
27802;SDS011;15182;48.174;11.562;2023-02-01T01:11:09;5.67;;;5.27;;
27802;SDS011;15182;48.174;11.562;2023-02-01T01:13:45;5.63;;;5.30;;
27802;SDS011;15182;48.174;11.562;2023-02-01T01:16:19;6.37;;;6.07;;
27802;SDS011;15182;48.174;11.562;2023-02-01T01:18:52;6.07;;;5.67;;
27802;SDS011;15182;48.174;11.562;2023-02-01T01:21:26;6.70;;;6.00;;
27802;SDS011;15182;48.174;11.562;2023-02-01T01:23:58;5.77;;;5.27;;
27802;SDS011;15182;48.174;11.562;2023-02-01T01:26:30;7.13;;;6.73;;
27802;SDS011;15182;48.174;11.562;2023-02-01T01:29:01;5.77;;;5.50;;
27802;SDS011;15182;48.174;11.562;2023-02-01T01:31:33;6.10;;;5.60;;
27802;SDS011;15182;48.174;11.562;2023-02-01T01:34:04;6.37;;;5.97;;
27802;SDS011;15182;48.174;11.562;2023-02-01T01:36:38;6.53;;;6.13;;
27802;SDS011;15182;48.174;11.562;2023-02-01T01:39:10;5.97;;;5.57;;
27802;SDS011;15182;48.174;11.562;2023-02-01T01:41:41;7.07;;;6.70;;
27802;SDS011;15182;48.174;11.562;2023-02-01T01:47:31;6.53;;;6.07;;
27802;SDS011;15182;48.174;11.562;2023-02-01T01:50:10;6.63;;;6.33;;
27802;SDS011;15182;48.174;11.562;2023-02-01T01:52:47;6.60;;;6.20;;
27802;SDS011;15182;48.174;11.562;2023-02-01T01:55:21;7.03;;;6.43;;
27802;SDS011;15182;48.174;11.562;2023-02-01T01:57:57;7.10;;;6.70;;
27802;SDS011;15182;48.174;11.562;2023-02-01T02:00:34;7.17;;;6.67;;
27802;SDS011;15182;48.174;11.562;2023-02-01T02:03:07;6.07;;;5.67;;
27802;SDS011;15182;48.174;11.562;2023-02-01T02:05:46;7.13;;;6.63;;
27802;SDS011;15182;48.174;11.562;2023-02-01T02:08:22;6.77;;;6.27;;
27802;SDS011;15182;48.174;11.562;2023-02-01T02:10:55;7.10;;;6.53;;
27802;SDS011;15182;48.174;11.562;2023-02-01T02:13:27;7.20;;;6.53;;
27802;SDS011;15182;48.174;11.562;2023-02-01T02:19:03;7.10;;;6.70;;
27802;SDS011;15182;48.174;11.562;2023-02-01T02:22:12;7.73;;;6.40;;
27802;SDS011;15182;48.174;11.562;2023-02-01T02:25:17;7.43;;;6.93;;
27802;SDS011;15182;48.174;11.562;2023-02-01T02:28:03;8.03;;;7.43;;
27802;SDS011;15182;48.174;11.562;2023-02-01T02:30:51;6.67;;;6.03;;
27802;SDS011;15182;48.174;11.562;2023-02-01T02:33:53;7.17;;;6.40;;
27802;SDS011;15182;48.174;11.562;2023-02-01T02:36:36;7.13;;;6.43;;
27802;SDS011;15182;48.174;11.562;2023-02-01T02:39:13;7.20;;;6.70;;
27802;SDS011;15182;48.174;11.562;2023-02-01T02:41:53;6.93;;;6.53;;
27802;SDS011;15182;48.174;11.562;2023-02-01T02:44:49;7.13;;;6.63;;
27802;SDS011;15182;48.174;11.562;2023-02-01T02:47:49;6.67;;;6.23;;
27802;SDS011;15182;48.174;11.562;2023-02-01T02:50:28;6.47;;;6.00;;
27802;SDS011;15182;48.174;11.562;2023-02-01T02:53:18;7.17;;;6.77;;
27802;SDS011;15182;48.174;11.562;2023-02-01T02:56:12;6.77;;;6.17;;
27802;SDS011;15182;48.174;11.562;2023-02-01T02:59:02;6.73;;;6.33;;
27802;SDS011;15182;48.174;11.562;2023-02-01T03:01:54;7.53;;;6.87;;
27802;SDS011;15182;48.174;11.562;2023-02-01T03:04:43;6.47;;;6.17;;
27802;SDS011;15182;48.174;11.562;2023-02-01T03:10:24;7.33;;;6.70;;
27802;SDS011;15182;48.174;11.562;2023-02-01T03:13:01;7.40;;;6.80;;
27802;SDS011;15182;48.174;11.562;2023-02-01T03:15:38;6.83;;;6.23;;
27802;SDS011;15182;48.174;11.562;2023-02-01T03:18:15;6.13;;;5.83;;
27802;SDS011;15182;48.174;11.562;2023-02-01T03:20:51;6.20;;;5.90;;
27802;SDS011;15182;48.174;11.562;2023-02-01T03:23:28;6.63;;;6.13;;
27802;SDS011;15182;48.174;11.562;2023-02-01T03:26:02;6.77;;;6.37;;
27802;SDS011;15182;48.174;11.562;2023-02-01T03:28:38;6.37;;;5.97;;
27802;SDS011;15182;48.174;11.562;2023-02-01T03:31:19;6.83;;;6.20;;
27802;SDS011;15182;48.174;11.562;2023-02-01T03:33:51;5.90;;;5.70;;
27802;SDS011;15182;48.174;11.562;2023-02-01T03:36:25;6.53;;;6.23;;
27802;SDS011;15182;48.174;11.562;2023-02-01T03:39:04;6.03;;;5.73;;
27802;SDS011;15182;48.174;11.562;2023-02-01T03:41:42;5.63;;;5.43;;
27802;SDS011;15182;48.174;11.562;2023-02-01T03:44:19;6.27;;;5.93;;
27802;SDS011;15182;48.174;11.562;2023-02-01T03:46:58;5.77;;;5.57;;
27802;SDS011;15182;48.174;11.562;2023-02-01T03:49:35;6.53;;;6.13;;
27802;SDS011;15182;48.174;11.562;2023-02-01T03:52:11;6.33;;;5.90;;
27802;SDS011;15182;48.174;11.562;2023-02-01T03:54:51;6.60;;;6.30;;
27802;SDS011;15182;48.174;11.562;2023-02-01T03:57:26;6.00;;;5.67;;
27802;SDS011;15182;48.174;11.562;2023-02-01T04:00:05;6.23;;;5.90;;
27802;SDS011;15182;48.174;11.562;2023-02-01T04:02:43;6.53;;;6.07;;
27802;SDS011;15182;48.174;11.562;2023-02-01T04:05:15;6.43;;;5.87;;
27802;SDS011;15182;48.174;11.562;2023-02-01T04:07:54;5.87;;;5.57;;
27802;SDS011;15182;48.174;11.562;2023-02-01T04:10:27;6.40;;;6.00;;
27802;SDS011;15182;48.174;11.562;2023-02-01T04:12:58;6.23;;;5.83;;
27802;SDS011;15182;48.174;11.562;2023-02-01T04:15:30;6.17;;;5.73;;
27802;SDS011;15182;48.174;11.562;2023-02-01T04:18:01;6.57;;;6.03;;
27802;SDS011;15182;48.174;11.562;2023-02-01T04:20:33;6.13;;;5.50;;
27802;SDS011;15182;48.174;11.562;2023-02-01T04:23:04;6.10;;;5.70;;
27802;SDS011;15182;48.174;11.562;2023-02-01T04:25:37;6.60;;;6.10;;
27802;SDS011;15182;48.174;11.562;2023-02-01T04:28:08;6.40;;;6.10;;
27802;SDS011;15182;48.174;11.562;2023-02-01T04:30:40;6.10;;;5.80;;
27802;SDS011;15182;48.174;11.562;2023-02-01T04:33:11;6.73;;;6.10;;
27802;SDS011;15182;48.174;11.562;2023-02-01T04:35:43;5.73;;;5.43;;
27802;SDS011;15182;48.174;11.562;2023-02-01T04:38:14;6.37;;;6.07;;
27802;SDS011;15182;48.174;11.562;2023-02-01T04:40:48;6.33;;;5.93;;
27802;SDS011;15182;48.174;11.562;2023-02-01T04:43:19;6.80;;;6.30;;
27802;SDS011;15182;48.174;11.562;2023-02-01T04:45:50;6.77;;;6.17;;
27802;SDS011;15182;48.174;11.562;2023-02-01T04:48:22;6.33;;;6.03;;
27802;SDS011;15182;48.174;11.562;2023-02-01T04:50:54;6.47;;;5.87;;
27802;SDS011;15182;48.174;11.562;2023-02-01T04:53:25;6.70;;;6.30;;
27802;SDS011;15182;48.174;11.562;2023-02-01T04:55:58;6.00;;;5.63;;
27802;SDS011;15182;48.174;11.562;2023-02-01T04:58:29;6.83;;;6.40;;
27802;SDS011;15182;48.174;11.562;2023-02-01T05:01:04;5.93;;;5.53;;
27802;SDS011;15182;48.174;11.562;2023-02-01T05:03:36;7.10;;;6.60;;
27802;SDS011;15182;48.174;11.562;2023-02-01T05:06:08;6.57;;;6.17;;
27802;SDS011;15182;48.174;11.562;2023-02-01T05:08:39;5.90;;;5.60;;
27802;SDS011;15182;48.174;11.562;2023-02-01T05:11:12;6.60;;;6.20;;
27802;SDS011;15182;48.174;11.562;2023-02-01T05:13:58;6.80;;;6.20;;
27802;SDS011;15182;48.174;11.562;2023-02-01T05:16:29;6.83;;;6.43;;
27802;SDS011;15182;48.174;11.562;2023-02-01T05:19:00;6.97;;;6.50;;
27802;SDS011;15182;48.174;11.562;2023-02-01T05:21:31;6.67;;;6.33;;
27802;SDS011;15182;48.174;11.562;2023-02-01T05:24:03;7.30;;;6.83;;
27802;SDS011;15182;48.174;11.562;2023-02-01T05:26:40;6.67;;;6.23;;
27802;SDS011;15182;48.174;11.562;2023-02-01T05:29:12;6.70;;;6.40;;
27802;SDS011;15182;48.174;11.562;2023-02-01T05:31:44;7.20;;;6.57;;
27802;SDS011;15182;48.174;11.562;2023-02-01T05:34:16;7.10;;;6.57;;
27802;SDS011;15182;48.174;11.562;2023-02-01T05:36:48;7.00;;;6.43;;
27802;SDS011;15182;48.174;11.562;2023-02-01T05:39:19;6.67;;;6.13;;
27802;SDS011;15182;48.174;11.562;2023-02-01T05:41:52;6.67;;;6.27;;
27802;SDS011;15182;48.174;11.562;2023-02-01T05:44:23;7.23;;;6.73;;
27802;SDS011;15182;48.174;11.562;2023-02-01T05:46:55;7.10;;;6.60;;
27802;SDS011;15182;48.174;11.562;2023-02-01T05:49:26;6.53;;;6.23;;
27802;SDS011;15182;48.174;11.562;2023-02-01T05:51:57;6.37;;;5.87;;
27802;SDS011;15182;48.174;11.562;2023-02-01T05:54:29;6.67;;;6.27;;
27802;SDS011;15182;48.174;11.562;2023-02-01T05:57:02;6.87;;;6.40;;
27802;SDS011;15182;48.174;11.562;2023-02-01T05:59:33;7.20;;;6.60;;
27802;SDS011;15182;48.174;11.562;2023-02-01T06:02:06;6.73;;;6.33;;
27802;SDS011;15182;48.174;11.562;2023-02-01T06:04:38;7.47;;;6.97;;
27802;SDS011;15182;48.174;11.562;2023-02-01T06:07:09;6.77;;;6.13;;
27802;SDS011;15182;48.174;11.562;2023-02-01T06:09:40;6.43;;;6.13;;
27802;SDS011;15182;48.174;11.562;2023-02-01T06:12:13;6.87;;;6.47;;
27802;SDS011;15182;48.174;11.562;2023-02-01T06:14:53;6.83;;;6.43;;
27802;SDS011;15182;48.174;11.562;2023-02-01T06:17:25;7.07;;;6.67;;
27802;SDS011;15182;48.174;11.562;2023-02-01T06:19:56;6.60;;;6.20;;
27802;SDS011;15182;48.174;11.562;2023-02-01T06:22:29;7.07;;;6.60;;
27802;SDS011;15182;48.174;11.562;2023-02-01T06:25:01;6.93;;;6.43;;
27802;SDS011;15182;48.174;11.562;2023-02-01T06:27:35;6.90;;;6.50;;
27802;SDS011;15182;48.174;11.562;2023-02-01T06:30:08;6.80;;;6.30;;
27802;SDS011;15182;48.174;11.562;2023-02-01T06:32:41;6.77;;;6.40;;
27802;SDS011;15182;48.174;11.562;2023-02-01T06:35:19;7.00;;;6.17;;
27802;SDS011;15182;48.174;11.562;2023-02-01T06:37:52;7.33;;;6.70;;
27802;SDS011;15182;48.174;11.562;2023-02-01T06:40:24;6.83;;;6.37;;
27802;SDS011;15182;48.174;11.562;2023-02-01T06:42:57;6.53;;;6.13;;
27802;SDS011;15182;48.174;11.562;2023-02-01T06:45:29;7.00;;;6.50;;
27802;SDS011;15182;48.174;11.562;2023-02-01T06:48:00;7.07;;;6.70;;
27802;SDS011;15182;48.174;11.562;2023-02-01T06:50:32;6.27;;;5.97;;
27802;SDS011;15182;48.174;11.562;2023-02-01T06:53:04;6.50;;;6.10;;
27802;SDS011;15182;48.174;11.562;2023-02-01T06:55:35;6.27;;;6.00;;
27802;SDS011;15182;48.174;11.562;2023-02-01T06:58:08;8.67;;;7.13;;
27802;SDS011;15182;48.174;11.562;2023-02-01T07:00:39;7.40;;;6.90;;
27802;SDS011;15182;48.174;11.562;2023-02-01T07:03:10;6.90;;;6.40;;
27802;SDS011;15182;48.174;11.562;2023-02-01T07:05:41;6.17;;;5.87;;
27802;SDS011;15182;48.174;11.562;2023-02-01T07:08:13;6.17;;;5.87;;
27802;SDS011;15182;48.174;11.562;2023-02-01T07:10:44;6.03;;;5.73;;
27802;SDS011;15182;48.174;11.562;2023-02-01T07:13:17;6.23;;;5.93;;
27802;SDS011;15182;48.174;11.562;2023-02-01T07:15:49;6.40;;;5.93;;
27802;SDS011;15182;48.174;11.562;2023-02-01T07:18:20;6.20;;;5.80;;
27802;SDS011;15182;48.174;11.562;2023-02-01T07:20:52;6.50;;;6.00;;
27802;SDS011;15182;48.174;11.562;2023-02-01T07:23:26;6.10;;;5.80;;
27802;SDS011;15182;48.174;11.562;2023-02-01T07:25:58;6.07;;;5.60;;
27802;SDS011;15182;48.174;11.562;2023-02-01T07:28:33;6.33;;;5.93;;
27802;SDS011;15182;48.174;11.562;2023-02-01T07:31:04;5.90;;;5.70;;
27802;SDS011;15182;48.174;11.562;2023-02-01T07:33:37;7.00;;;6.60;;
27802;SDS011;15182;48.174;11.562;2023-02-01T07:36:10;6.33;;;6.00;;
27802;SDS011;15182;48.174;11.562;2023-02-01T07:38:44;6.33;;;5.80;;
27802;SDS011;15182;48.174;11.562;2023-02-01T07:41:16;6.47;;;5.87;;
27802;SDS011;15182;48.174;11.562;2023-02-01T07:43:49;6.33;;;5.93;;
27802;SDS011;15182;48.174;11.562;2023-02-01T07:46:23;6.10;;;5.70;;
27802;SDS011;15182;48.174;11.562;2023-02-01T07:48:54;5.93;;;5.63;;
27802;SDS011;15182;48.174;11.562;2023-02-01T07:51:26;5.33;;;5.07;;
27802;SDS011;15182;48.174;11.562;2023-02-01T07:53:57;5.40;;;5.03;;
27802;SDS011;15182;48.174;11.562;2023-02-01T07:56:31;5.47;;;5.17;;
27802;SDS011;15182;48.174;11.562;2023-02-01T07:59:03;5.60;;;5.40;;
27802;SDS011;15182;48.174;11.562;2023-02-01T08:01:34;5.47;;;5.27;;
27802;SDS011;15182;48.174;11.562;2023-02-01T08:04:06;5.07;;;4.70;;
27802;SDS011;15182;48.174;11.562;2023-02-01T08:06:40;5.47;;;5.17;;
27802;SDS011;15182;48.174;11.562;2023-02-01T08:09:11;5.50;;;5.30;;
27802;SDS011;15182;48.174;11.562;2023-02-01T08:11:40;4.90;;;4.70;;
27802;SDS011;15182;48.174;11.562;2023-02-01T08:14:13;6.40;;;5.60;;
27802;SDS011;15182;48.174;11.562;2023-02-01T08:16:46;5.33;;;4.90;;
27802;SDS011;15182;48.174;11.562;2023-02-01T08:19:17;5.53;;;5.23;;
27802;SDS011;15182;48.174;11.562;2023-02-01T08:21:48;5.53;;;4.97;;
27802;SDS011;15182;48.174;11.562;2023-02-01T08:24:20;4.90;;;4.70;;
27802;SDS011;15182;48.174;11.562;2023-02-01T08:26:51;4.73;;;4.63;;
27802;SDS011;15182;48.174;11.562;2023-02-01T08:29:24;4.80;;;4.70;;
27802;SDS011;15182;48.174;11.562;2023-02-01T08:31:56;5.10;;;4.90;;
27802;SDS011;15182;48.174;11.562;2023-02-01T08:34:27;5.33;;;5.03;;
27802;SDS011;15182;48.174;11.562;2023-02-01T08:36:59;5.43;;;4.40;;
27802;SDS011;15182;48.174;11.562;2023-02-01T08:39:33;5.17;;;4.87;;
27802;SDS011;15182;48.174;11.562;2023-02-01T08:42:04;5.13;;;4.93;;
27802;SDS011;15182;48.174;11.562;2023-02-01T08:44:55;5.33;;;5.10;;
27802;SDS011;15182;48.174;11.562;2023-02-01T08:47:26;5.43;;;5.17;;
27802;SDS011;15182;48.174;11.562;2023-02-01T08:49:58;5.10;;;4.90;;
27802;SDS011;15182;48.174;11.562;2023-02-01T08:52:29;5.50;;;5.17;;
27802;SDS011;15182;48.174;11.562;2023-02-01T08:55:00;4.77;;;4.57;;
27802;SDS011;15182;48.174;11.562;2023-02-01T08:57:34;5.20;;;5.00;;
27802;SDS011;15182;48.174;11.562;2023-02-01T09:00:08;5.67;;;5.23;;
27802;SDS011;15182;48.174;11.562;2023-02-01T09:02:42;4.90;;;4.80;;
27802;SDS011;15182;48.174;11.562;2023-02-01T09:05:14;5.30;;;5.10;;
27802;SDS011;15182;48.174;11.562;2023-02-01T09:07:48;5.47;;;5.17;;
27802;SDS011;15182;48.174;11.562;2023-02-01T09:10:19;4.87;;;4.67;;
27802;SDS011;15182;48.174;11.562;2023-02-01T09:12:50;5.30;;;5.07;;
27802;SDS011;15182;48.174;11.562;2023-02-01T09:15:23;4.63;;;4.53;;
27802;SDS011;15182;48.174;11.562;2023-02-01T09:17:54;4.97;;;4.77;;
27802;SDS011;15182;48.174;11.562;2023-02-01T09:20:25;5.43;;;5.03;;
27802;SDS011;15182;48.174;11.562;2023-02-01T09:22:57;4.87;;;4.77;;
27802;SDS011;15182;48.174;11.562;2023-02-01T09:25:28;4.90;;;4.70;;
27802;SDS011;15182;48.174;11.562;2023-02-01T09:27:59;5.10;;;4.90;;
27802;SDS011;15182;48.174;11.562;2023-02-01T09:30:33;4.90;;;4.80;;
27802;SDS011;15182;48.174;11.562;2023-02-01T09:33:04;5.60;;;4.33;;
27802;SDS011;15182;48.174;11.562;2023-02-01T09:35:36;4.83;;;4.73;;
27802;SDS011;15182;48.174;11.562;2023-02-01T09:38:07;5.23;;;4.70;;
27802;SDS011;15182;48.174;11.562;2023-02-01T09:40:39;4.70;;;4.40;;
27802;SDS011;15182;48.174;11.562;2023-02-01T09:43:18;5.03;;;4.73;;
27802;SDS011;15182;48.174;11.562;2023-02-01T09:46:02;4.77;;;4.67;;
27802;SDS011;15182;48.174;11.562;2023-02-01T09:48:44;4.97;;;4.77;;
27802;SDS011;15182;48.174;11.562;2023-02-01T09:51:19;4.60;;;4.50;;
27802;SDS011;15182;48.174;11.562;2023-02-01T09:53:56;4.83;;;4.63;;
27802;SDS011;15182;48.174;11.562;2023-02-01T09:56:34;5.23;;;4.93;;
27802;SDS011;15182;48.174;11.562;2023-02-01T09:59:15;4.53;;;4.33;;
27802;SDS011;15182;48.174;11.562;2023-02-01T10:01:58;5.93;;;4.43;;
27802;SDS011;15182;48.174;11.562;2023-02-01T10:04:35;4.43;;;4.33;;
27802;SDS011;15182;48.174;11.562;2023-02-01T10:07:09;4.53;;;4.43;;
27802;SDS011;15182;48.174;11.562;2023-02-01T10:09:55;5.10;;;4.90;;
27802;SDS011;15182;48.174;11.562;2023-02-01T10:12:40;5.37;;;5.10;;
27802;SDS011;15182;48.174;11.562;2023-02-01T10:15:35;5.33;;;5.00;;
27802;SDS011;15182;48.174;11.562;2023-02-01T10:18:37;5.30;;;5.10;;
27802;SDS011;15182;48.174;11.562;2023-02-01T10:21:51;6.07;;;5.77;;
27802;SDS011;15182;48.174;11.562;2023-02-01T10:24:34;5.37;;;5.27;;
27802;SDS011;15182;48.174;11.562;2023-02-01T10:27:11;5.60;;;5.37;;
27802;SDS011;15182;48.174;11.562;2023-02-01T10:29:49;5.37;;;5.10;;
27802;SDS011;15182;48.174;11.562;2023-02-01T10:32:28;5.10;;;4.70;;
27802;SDS011;15182;48.174;11.562;2023-02-01T10:35:08;5.30;;;5.00;;
27802;SDS011;15182;48.174;11.562;2023-02-01T10:37:44;5.07;;;4.83;;
27802;SDS011;15182;48.174;11.562;2023-02-01T10:40:17;5.10;;;4.60;;
27802;SDS011;15182;48.174;11.562;2023-02-01T10:42:52;4.80;;;4.70;;
27802;SDS011;15182;48.174;11.562;2023-02-01T10:45:28;5.53;;;5.23;;
27802;SDS011;15182;48.174;11.562;2023-02-01T10:48:04;6.23;;;5.83;;
27802;SDS011;15182;48.174;11.562;2023-02-01T10:50:38;5.27;;;5.00;;
27802;SDS011;15182;48.174;11.562;2023-02-01T10:53:17;5.33;;;4.90;;
27802;SDS011;15182;48.174;11.562;2023-02-01T10:55:55;4.80;;;4.50;;
27802;SDS011;15182;48.174;11.562;2023-02-01T10:58:30;5.20;;;4.80;;
27802;SDS011;15182;48.174;11.562;2023-02-01T11:01:03;4.57;;;4.37;;
27802;SDS011;15182;48.174;11.562;2023-02-01T11:03:38;4.40;;;4.20;;
27802;SDS011;15182;48.174;11.562;2023-02-01T11:06:21;4.67;;;4.50;;
27802;SDS011;15182;48.174;11.562;2023-02-01T11:08:57;5.50;;;5.27;;
27802;SDS011;15182;48.174;11.562;2023-02-01T11:11:52;4.70;;;4.53;;
27802;SDS011;15182;48.174;11.562;2023-02-01T11:14:26;4.17;;;4.07;;
27802;SDS011;15182;48.174;11.562;2023-02-01T11:17:16;7.60;;;4.90;;
27802;SDS011;15182;48.174;11.562;2023-02-01T11:19:57;6.03;;;5.60;;
27802;SDS011;15182;48.174;11.562;2023-02-01T11:22:46;5.13;;;4.93;;
27802;SDS011;15182;48.174;11.562;2023-02-01T11:25:22;5.03;;;4.73;;
27802;SDS011;15182;48.174;11.562;2023-02-01T11:27:54;4.70;;;4.50;;
27802;SDS011;15182;48.174;11.562;2023-02-01T11:30:31;5.07;;;4.80;;
27802;SDS011;15182;48.174;11.562;2023-02-01T11:33:09;4.80;;;4.50;;
27802;SDS011;15182;48.174;11.562;2023-02-01T11:35:45;4.40;;;4.20;;
27802;SDS011;15182;48.174;11.562;2023-02-01T11:38:23;7.20;;;4.80;;
27802;SDS011;15182;48.174;11.562;2023-02-01T11:41:10;4.43;;;4.30;;
27802;SDS011;15182;48.174;11.562;2023-02-01T11:43:54;4.87;;;4.70;;
27802;SDS011;15182;48.174;11.562;2023-02-01T11:46:28;5.30;;;5.00;;
27802;SDS011;15182;48.174;11.562;2023-02-01T11:49:13;5.20;;;4.80;;
27802;SDS011;15182;48.174;11.562;2023-02-01T11:51:53;5.00;;;4.70;;
27802;SDS011;15182;48.174;11.562;2023-02-01T11:54:41;5.40;;;5.20;;
27802;SDS011;15182;48.174;11.562;2023-02-01T11:57:33;5.40;;;5.00;;
27802;SDS011;15182;48.174;11.562;2023-02-01T12:00:20;4.97;;;4.87;;
27802;SDS011;15182;48.174;11.562;2023-02-01T12:03:22;6.43;;;5.90;;
27802;SDS011;15182;48.174;11.562;2023-02-01T12:06:18;5.67;;;5.47;;
27802;SDS011;15182;48.174;11.562;2023-02-01T12:09:16;5.93;;;5.53;;
27802;SDS011;15182;48.174;11.562;2023-02-01T12:12:02;5.73;;;5.53;;
27802;SDS011;15182;48.174;11.562;2023-02-01T12:14:43;5.53;;;5.20;;
27802;SDS011;15182;48.174;11.562;2023-02-01T12:17:38;5.10;;;4.80;;
27802;SDS011;15182;48.174;11.562;2023-02-01T12:20:21;5.10;;;5.00;;
27802;SDS011;15182;48.174;11.562;2023-02-01T12:23:13;6.20;;;5.90;;
27802;SDS011;15182;48.174;11.562;2023-02-01T12:29:20;6.07;;;5.43;;
27802;SDS011;15182;48.174;11.562;2023-02-01T12:32:25;5.50;;;5.10;;
27802;SDS011;15182;48.174;11.562;2023-02-01T12:35:13;5.53;;;5.00;;
27802;SDS011;15182;48.174;11.562;2023-02-01T12:37:53;6.00;;;5.50;;
27802;SDS011;15182;48.174;11.562;2023-02-01T12:40:40;8.47;;;5.73;;
27802;SDS011;15182;48.174;11.562;2023-02-01T12:43:22;5.87;;;5.47;;
27802;SDS011;15182;48.174;11.562;2023-02-01T12:46:06;5.93;;;5.60;;
27802;SDS011;15182;48.174;11.562;2023-02-01T12:48:46;5.60;;;5.10;;
27802;SDS011;15182;48.174;11.562;2023-02-01T12:51:26;5.63;;;5.33;;
27802;SDS011;15182;48.174;11.562;2023-02-01T12:54:02;5.60;;;5.20;;
27802;SDS011;15182;48.174;11.562;2023-02-01T12:56:40;5.10;;;4.70;;
27802;SDS011;15182;48.174;11.562;2023-02-01T12:59:19;4.90;;;4.70;;
27802;SDS011;15182;48.174;11.562;2023-02-01T13:01:58;5.60;;;5.00;;
27802;SDS011;15182;48.174;11.562;2023-02-01T13:04:42;6.37;;;5.27;;
27802;SDS011;15182;48.174;11.562;2023-02-01T13:07:21;5.27;;;4.83;;
27802;SDS011;15182;48.174;11.562;2023-02-01T13:09:59;12.20;;;5.10;;
27802;SDS011;15182;48.174;11.562;2023-02-01T13:12:43;5.23;;;4.93;;
27802;SDS011;15182;48.174;11.562;2023-02-01T13:15:21;6.47;;;4.50;;
27802;SDS011;15182;48.174;11.562;2023-02-01T13:18:00;5.03;;;4.83;;
27802;SDS011;15182;48.174;11.562;2023-02-01T13:20:37;4.70;;;4.40;;
27802;SDS011;15182;48.174;11.562;2023-02-01T13:23:16;5.10;;;4.90;;
27802;SDS011;15182;48.174;11.562;2023-02-01T13:25:53;7.97;;;5.37;;
27802;SDS011;15182;48.174;11.562;2023-02-01T13:28:25;4.87;;;4.67;;
27802;SDS011;15182;48.174;11.562;2023-02-01T13:40:34;5.73;;;5.30;;
27802;SDS011;15182;48.174;11.562;2023-02-01T13:43:11;4.77;;;4.57;;
27802;SDS011;15182;48.174;11.562;2023-02-01T13:45:47;4.50;;;4.40;;
27802;SDS011;15182;48.174;11.562;2023-02-01T13:48:24;7.47;;;4.80;;
27802;SDS011;15182;48.174;11.562;2023-02-01T13:51:01;4.53;;;4.43;;
27802;SDS011;15182;48.174;11.562;2023-02-01T13:53:34;4.80;;;4.60;;
27802;SDS011;15182;48.174;11.562;2023-02-01T13:56:11;5.50;;;5.27;;
27802;SDS011;15182;48.174;11.562;2023-02-01T13:58:46;5.63;;;5.13;;
27802;SDS011;15182;48.174;11.562;2023-02-01T14:07:19;5.20;;;5.00;;
27802;SDS011;15182;48.174;11.562;2023-02-01T14:09:51;5.17;;;4.97;;
27802;SDS011;15182;48.174;11.562;2023-02-01T14:12:42;4.87;;;4.73;;
27802;SDS011;15182;48.174;11.562;2023-02-01T14:15:18;4.90;;;4.70;;
27802;SDS011;15182;48.174;11.562;2023-02-01T14:17:50;5.40;;;5.07;;
27802;SDS011;15182;48.174;11.562;2023-02-01T14:23:20;5.70;;;5.23;;
27802;SDS011;15182;48.174;11.562;2023-02-01T14:26:05;4.73;;;4.63;;
27802;SDS011;15182;48.174;11.562;2023-02-01T14:28:39;4.67;;;4.47;;
27802;SDS011;15182;48.174;11.562;2023-02-01T14:34:13;5.47;;;5.03;;
27802;SDS011;15182;48.174;11.562;2023-02-01T14:36:50;4.63;;;4.53;;
27802;SDS011;15182;48.174;11.562;2023-02-01T14:39:29;5.37;;;4.90;;
27802;SDS011;15182;48.174;11.562;2023-02-01T14:42:05;4.77;;;4.47;;
27802;SDS011;15182;48.174;11.562;2023-02-01T14:44:49;5.17;;;4.77;;
27802;SDS011;15182;48.174;11.562;2023-02-01T14:47:31;6.93;;;4.47;;
27802;SDS011;15182;48.174;11.562;2023-02-01T14:53:04;7.37;;;4.63;;
27802;SDS011;15182;48.174;11.562;2023-02-01T14:55:51;4.93;;;4.83;;
27802;SDS011;15182;48.174;11.562;2023-02-01T14:58:34;5.53;;;5.10;;
27802;SDS011;15182;48.174;11.562;2023-02-01T15:01:17;4.70;;;4.50;;
27802;SDS011;15182;48.174;11.562;2023-02-01T15:03:52;4.50;;;4.30;;
27802;SDS011;15182;48.174;11.562;2023-02-01T15:06:36;5.00;;;4.70;;
27802;SDS011;15182;48.174;11.562;2023-02-01T15:09:11;5.30;;;5.03;;
27802;SDS011;15182;48.174;11.562;2023-02-01T15:11:55;5.23;;;4.83;;
27802;SDS011;15182;48.174;11.562;2023-02-01T15:14:30;6.33;;;4.50;;
27802;SDS011;15182;48.174;11.562;2023-02-01T15:17:15;4.87;;;4.67;;
27802;SDS011;15182;48.174;11.562;2023-02-01T15:19:53;5.07;;;4.57;;
27802;SDS011;15182;48.174;11.562;2023-02-01T15:22:28;5.33;;;4.97;;
27802;SDS011;15182;48.174;11.562;2023-02-01T15:25:01;5.43;;;5.13;;
27802;SDS011;15182;48.174;11.562;2023-02-01T15:27:33;5.07;;;4.67;;
27802;SDS011;15182;48.174;11.562;2023-02-01T15:30:05;6.70;;;4.40;;
27802;SDS011;15182;48.174;11.562;2023-02-01T15:32:46;7.87;;;4.70;;
27802;SDS011;15182;48.174;11.562;2023-02-01T15:35:31;5.63;;;5.10;;
27802;SDS011;15182;48.174;11.562;2023-02-01T15:38:19;4.77;;;4.53;;
27802;SDS011;15182;48.174;11.562;2023-02-01T15:41:11;4.87;;;4.67;;
27802;SDS011;15182;48.174;11.562;2023-02-01T15:43:47;7.50;;;5.03;;
27802;SDS011;15182;48.174;11.562;2023-02-01T15:46:35;5.03;;;4.77;;
27802;SDS011;15182;48.174;11.562;2023-02-01T15:49:15;7.27;;;4.87;;
27802;SDS011;15182;48.174;11.562;2023-02-01T15:51:54;5.20;;;4.90;;
27802;SDS011;15182;48.174;11.562;2023-02-01T15:54:28;4.97;;;4.67;;
27802;SDS011;15182;48.174;11.562;2023-02-01T15:57:03;8.10;;;4.27;;
27802;SDS011;15182;48.174;11.562;2023-02-01T15:59:43;4.57;;;4.40;;
27802;SDS011;15182;48.174;11.562;2023-02-01T16:02:26;4.47;;;4.30;;
27802;SDS011;15182;48.174;11.562;2023-02-01T16:05:05;4.43;;;4.13;;
27802;SDS011;15182;48.174;11.562;2023-02-01T16:08:02;4.40;;;4.13;;